Time;durP1;ratioP1;P1;durP2;ratioP2;P2;SDS_P1;SDS_P2;PMS_P1;PMS_P2;Temp;Humidity;BMP_temperature;BMP_pressure;BME280_temperature;BME280_humidity;BME280_pressure;Samples;Min_cycle;Max_cycle;Signal;HPM_P1;HPM_P2
2023/10/08 00:01:12;;;;;;;0.10;0.10;;;;;;;12.70;100.00;101343.56;5086920;28;20304;-77
2023/10/08 00:03:40;;;;;;;0.20;0.15;;;;;;;12.73;100.00;101352.25;5077688;28;20800;-77
2023/10/08 00:06:12;;;;;;;0.25;0.25;;;;;;;12.78;100.00;101357.50;5058401;28;20455;-78
2023/10/08 00:08:39;;;;;;;0.90;0.20;;;;;;;12.86;100.00;101373.22;5076327;28;20607;-78
2023/10/08 00:11:07;;;;;;;1.73;0.20;;;;;;;12.81;100.00;101377.63;5058527;28;20127;-78
2023/10/08 00:13:39;;;;;;;1.45;0.10;;;;;;;12.83;100.00;101382.00;5075247;28;20842;-78
2023/10/08 00:16:16;;;;;;;0.05;0.05;;;;;;;12.81;100.00;101375.84;5056811;28;20104;-78
2023/10/08 00:18:50;;;;;;;0.70;0.05;;;;;;;12.78;100.00;101370.63;5073503;28;20518;-77
2023/10/08 00:21:17;;;;;;;;;;;;;;;12.85;100.00;101381.97;5075692;28;20043;-78
2023/10/08 00:23:52;;;;;;;0.10;0.10;;;;;;;12.80;100.00;101381.13;5072607;28;19924;-78
2023/10/08 00:26:27;;;;;;;0.57;0.57;;;;;;;12.70;100.00;101375.06;5059012;28;20044;-77
2023/10/08 00:29:15;;;;;;;0.20;0.10;;;;;;;12.67;100.00;101375.97;5077188;28;20098;-78
2023/10/08 00:31:41;;;;;;;0.28;0.22;;;;;;;12.57;100.00;101390.88;5076870;28;20075;-78
2023/10/08 00:34:11;;;;;;;0.10;0.10;;;;;;;12.53;100.00;101394.41;5071371;28;20104;-78
2023/10/08 00:36:42;;;;;;;0.10;0.00;;;;;;;12.48;100.00;101409.31;5078068;28;20036;-79
2023/10/08 00:39:13;;;;;;;0.45;0.08;;;;;;;12.37;100.00;101422.50;5050024;28;20043;-78
2023/10/08 00:41:44;;;;;;;0.00;0.00;;;;;;;12.39;100.00;101427.75;5068571;28;20640;-78
2023/10/08 00:44:22;;;;;;;0.20;0.10;;;;;;;12.46;100.00;101428.59;5059929;28;20432;-79
2023/10/08 00:46:50;;;;;;;0.10;0.10;;;;;;;12.41;100.00;101439.09;5079379;28;20063;-78
2023/10/08 00:49:25;;;;;;;0.00;0.00;;;;;;;12.40;100.00;101461.88;5077294;28;20080;-81
2023/10/08 00:52:03;;;;;;;0.43;0.30;;;;;;;12.32;100.00;101466.28;5080206;28;20044;-78
2023/10/08 00:54:32;;;;;;;0.20;0.10;;;;;;;12.19;100.00;101468.06;5079734;28;20044;-77
2023/10/08 00:57:04;;;;;;;1.80;1.70;;;;;;;12.10;100.00;101475.97;5065665;28;20043;-78
2023/10/08 00:59:43;;;;;;;1.17;0.40;;;;;;;12.02;100.00;101481.22;5076732;28;20040;-77
2023/10/08 01:02:14;;;;;;;1.08;0.20;;;;;;;12.04;100.00;101484.72;5077290;28;20044;-79
2023/10/08 01:04:43;;;;;;;0.10;0.10;;;;;;;11.96;100.00;101485.63;5078529;28;20079;-79
2023/10/08 01:07:15;;;;;;;0.32;0.10;;;;;;;11.92;100.00;101495.19;5077969;28;20377;-79
2023/10/08 01:09:43;;;;;;;0.10;0.10;;;;;;;11.82;100.00;101496.09;5080298;28;20494;-78
2023/10/08 01:12:24;;;;;;;0.10;0.10;;;;;;;11.74;100.00;101511.81;5083102;28;20036;-78
2023/10/08 01:14:53;;;;;;;0.60;0.32;;;;;;;11.80;100.00;101518.81;5080611;28;20076;-78
2023/10/08 01:17:25;;;;;;;0.22;0.10;;;;;;;11.78;100.00;101520.56;5093028;27;20043;-77
2023/10/08 01:19:56;;;;;;;0.75;0.28;;;;;;;11.58;100.00;101521.44;5075959;28;20062;-79
2023/10/08 01:22:24;;;;;;;1.00;0.20;;;;;;;11.46;100.00;101535.41;5090917;28;20489;-77
2023/10/08 01:24:51;;;;;;;0.75;0.20;;;;;;;11.31;100.00;101532.75;5071877;28;20044;-79
2023/10/08 01:27:21;;;;;;;1.33;0.20;;;;;;;11.36;100.00;101528.41;5079182;28;20044;-78
2023/10/08 01:29:52;;;;;;;0.32;0.32;;;;;;;11.39;100.00;101526.66;5079914;28;20093;-78
2023/10/08 01:32:21;;;;;;;0.82;0.20;;;;;;;11.41;100.00;101535.38;5077486;28;20457;-79
2023/10/08 01:34:50;;;;;;;1.45;0.28;;;;;;;11.52;100.00;101532.78;5081705;28;20047;-77
2023/10/08 01:37:21;;;;;;;0.85;0.20;;;;;;;11.58;100.00;101538.03;5061864;28;20492;-78
2023/10/08 01:39:50;;;;;;;0.50;0.50;;;;;;;11.66;100.00;101526.69;5079287;28;20040;-77
2023/10/08 01:42:17;;;;;;;1.02;0.38;;;;;;;11.61;100.00;101518.81;5079973;28;20200;-80
2023/10/08 01:44:55;;;;;;;1.75;0.68;;;;;;;11.53;100.00;101516.19;5079998;28;20043;-79
2023/10/08 01:47:25;;;;;;;5.57;2.70;;;;;;;11.64;100.00;101538.91;5059094;28;20533;-77
2023/10/08 01:49:59;;;;;;;4.88;1.05;;;;;;;11.70;100.00;101547.66;5082541;28;20075;-77
2023/10/08 01:52:26;;;;;;;3.70;0.35;;;;;;;11.71;100.00;101554.66;5080007;28;20048;-77
2023/10/08 01:54:54;;;;;;;1.45;0.50;;;;;;;11.73;100.00;101546.78;5075283;28;20067;-81
2023/10/08 01:57:20;;;;;;;0.50;0.30;;;;;;;11.73;100.00;101525.81;5080402;28;20043;-79
2023/10/08 01:59:47;;;;;;;0.25;0.20;;;;;;;11.70;100.00;101557.28;5077467;28;20040;-78
2023/10/08 02:02:15;;;;;;;3.50;0.43;;;;;;;11.65;100.00;101559.91;5081105;28;20617;-77
2023/10/08 02:04:42;;;;;;;0.90;0.30;;;;;;;11.70;100.00;101546.78;5073663;28;20036;-77
2023/10/08 02:07:12;;;;;;;0.93;0.50;;;;;;;11.56;100.00;101559.88;5074629;28;20036;-77
2023/10/08 02:09:40;;;;;;;1.88;0.60;;;;;;;11.46;100.00;101550.25;5076264;28;20060;-79
2023/10/08 02:12:08;;;;;;;2.92;0.30;;;;;;;11.36;100.00;101545.00;5075324;28;20110;-78
2023/10/08 02:14:35;;;;;;;2.03;0.47;;;;;;;11.35;100.00;101552.84;5078382;28;20074;-79
2023/10/08 02:17:05;;;;;;;1.30;0.40;;;;;;;11.34;100.00;101545.84;5062712;28;20063;-78
2023/10/08 02:19:36;;;;;;;0.80;0.20;;;;;;;11.30;100.00;101555.47;5077732;28;20171;-78
2023/10/08 02:22:09;;;;;;;4.38;0.40;;;;;;;11.31;100.00;101557.22;5074259;28;20123;-79
2023/10/08 02:24:37;;;;;;;0.98;0.30;;;;;;;11.33;100.00;101542.38;5088763;28;20043;-78
2023/10/08 02:27:07;;;;;;;0.45;0.35;;;;;;;11.37;100.00;101538.88;5071390;28;20064;-78
2023/10/08 02:29:37;;;;;;;0.35;0.30;;;;;;;11.42;100.00;101534.53;5077752;28;20043;-78
2023/10/08 02:32:07;;;;;;;0.60;0.30;;;;;;;11.48;100.00;101530.16;5077907;28;20067;-78
2023/10/08 02:34:35;;;;;;;0.65;0.30;;;;;;;11.47;100.00;101534.53;5070017;28;20048;-78
2023/10/08 02:37:04;;;;;;;0.82;0.25;;;;;;;11.47;100.00;101536.28;5060017;28;20131;-77
2023/10/08 02:39:34;;;;;;;1.45;0.30;;;;;;;11.49;100.00;101545.91;5079424;28;20082;-78
2023/10/08 02:42:01;;;;;;;3.63;0.35;;;;;;;11.52;100.00;101532.78;5074589;28;20093;-78
2023/10/08 02:44:28;;;;;;;1.45;0.35;;;;;;;11.50;100.00;101547.66;5073042;28;20036;-78
2023/10/08 02:46:54;;;;;;;1.63;0.45;;;;;;;11.48;100.00;101548.53;5078776;28;20044;-80
2023/10/08 02:49:23;;;;;;;2.85;0.47;;;;;;;11.48;100.00;101545.91;5076501;28;20040;-77
2023/10/08 02:51:54;;;;;;;1.20;0.20;;;;;;;11.47;100.00;101545.03;5093424;28;20047;-78
2023/10/08 02:54:31;;;;;;;1.40;0.57;;;;;;;11.50;100.00;101552.00;5059135;28;20044;-77
2023/10/08 02:56:58;;;;;;;2.45;0.38;;;;;;;11.52;100.00;101556.38;5076442;28;20042;-81
2023/10/08 02:59:39;;;;;;;0.35;0.35;;;;;;;11.55;100.00;101572.13;5072429;28;20553;-79
2023/10/08 03:02:13;;;;;;;1.80;0.30;;;;;;;11.56;100.00;101563.41;5074571;28;20055;-80
2023/10/08 03:04:45;;;;;;;0.40;0.30;;;;;;;11.56;100.00;101545.03;5072100;28;20048;-78
2023/10/08 03:07:22;;;;;;;0.40;0.40;;;;;;;11.50;100.00;101531.91;5072413;28;20300;-78
2023/10/08 03:09:50;;;;;;;0.77;0.35;;;;;;;11.54;100.00;101546.78;5076864;28;20148;-77
2023/10/08 03:12:24;;;;;;;1.65;0.52;;;;;;;11.57;100.00;101541.53;5056981;28;20476;-79
2023/10/08 03:15:01;;;;;;;1.05;0.45;;;;;;;11.56;100.00;101537.19;5062650;28;20131;-78
2023/10/08 03:17:37;;;;;;;1.30;0.30;;;;;;;11.55;100.00;101537.16;5079363;28;20089;-77
2023/10/08 03:20:29;;;;;;;1.00;0.40;;;;;;;11.57;100.00;101544.16;5076343;28;20048;-78
2023/10/08 03:22:52;;;;;;;1.05;0.50;;;;;;;11.58;100.00;101547.66;5078461;28;20447;-77
2023/10/08 03:25:19;;;;;;;2.58;0.30;;;;;;;11.56;100.00;101570.38;5058984;28;20044;-77
2023/10/08 03:27:48;;;;;;;1.33;0.40;;;;;;;11.54;100.00;101586.09;5078558;28;20056;-79
2023/10/08 03:30:15;;;;;;;1.58;0.50;;;;;;;11.51;100.00;101591.34;5073889;28;20051;-80
2023/10/08 03:32:45;;;;;;;2.35;0.63;;;;;;;11.56;100.00;101605.34;5093869;28;20126;-80
2023/10/08 03:35:12;;;;;;;1.27;0.73;;;;;;;11.58;100.00;101605.34;5070744;28;20129;-78
2023/10/08 03:37:46;;;;;;;1.48;0.40;;;;;;;11.57;100.00;101599.22;5055590;28;20563;-77
2023/10/08 03:40:25;;;;;;;1.35;0.30;;;;;;;11.56;100.00;101609.72;5073293;28;20044;-78
2023/10/08 03:42:55;;;;;;;2.20;0.47;;;;;;;11.57;100.00;101603.59;5076868;28;20471;-81
2023/10/08 03:48:05;;;;;;;0.52;0.30;;;;;;;11.56;100.00;101610.59;5070923;28;20044;-80
2023/10/08 03:50:40;;;;;;;4.68;0.50;;;;;;;11.56;100.00;101600.13;5077848;28;20566;-78
2023/10/08 03:53:11;;;;;;;3.70;1.13;;;;;;;11.57;100.00;101595.72;5058672;28;20708;-77
2023/10/08 03:55:41;;;;;;;2.05;0.55;;;;;;;11.56;100.00;101597.50;5072905;28;20054;-77
2023/10/08 03:58:19;;;;;;;0.88;0.40;;;;;;;11.55;100.00;101602.69;5073502;28;20043;-80
2023/10/08 04:00:47;;;;;;;5.93;0.80;;;;;;;11.50;100.00;101613.19;5070780;28;20044;-81
2023/10/08 04:03:23;;;;;;;2.28;0.40;;;;;;;11.52;100.00;101607.94;5073690;28;20089;-80
2023/10/08 04:06:03;;;;;;;2.72;0.45;;;;;;;11.54;100.00;101619.34;5076386;28;20052;-79
2023/10/08 04:08:43;;;;;;;2.15;0.38;;;;;;;11.55;100.00;101616.72;5070491;28;20048;-78
2023/10/08 04:11:30;;;;;;;3.10;0.50;;;;;;;11.54;100.00;101628.06;5082433;28;20040;-79
2023/10/08 04:14:00;;;;;;;5.28;0.77;;;;;;;11.50;100.00;101638.53;5072986;28;20067;-76
2023/10/08 04:16:27;;;;;;;3.72;0.40;;;;;;;11.47;100.00;101644.66;5075540;28;20048;-79
2023/10/08 04:18:56;;;;;;;2.25;0.40;;;;;;;11.44;100.00;101634.16;5077196;28;20216;-78
2023/10/08 04:21:27;;;;;;;2.38;0.60;;;;;;;11.44;100.00;101644.63;5094516;28;20619;-80
2023/10/08 04:23:57;;;;;;;3.30;0.60;;;;;;;11.49;100.00;101653.41;5081515;28;20115;-79
2023/10/08 04:26:25;;;;;;;1.33;0.32;;;;;;;11.51;100.00;101650.78;5077534;28;20043;-79
2023/10/08 04:28:57;;;;;;;3.35;0.55;;;;;;;11.51;100.00;101646.44;5068289;28;20040;-81
2023/10/08 04:31:28;;;;;;;3.90;0.82;;;;;;;11.49;100.00;101658.63;5078088;28;20040;-78
2023/10/08 04:33:55;;;;;;;2.78;0.70;;;;;;;11.48;100.00;101656.88;5076690;28;20294;-79
2023/10/08 04:36:21;;;;;;;1.85;0.50;;;;;;;11.47;100.00;101659.50;5096395;28;20131;-79
2023/10/08 04:38:48;;;;;;;1.35;0.55;;;;;;;11.45;100.00;101658.66;5081402;28;20048;-78
2023/10/08 04:41:19;;;;;;;3.47;1.40;;;;;;;11.43;100.00;101656.00;5060308;28;20055;-79
2023/10/08 04:43:57;;;;;;;4.30;0.75;;;;;;;11.44;100.00;101647.25;5078952;28;20432;-77
2023/10/08 04:46:46;;;;;;;3.25;0.40;;;;;;;11.43;100.00;101653.38;5076592;28;20048;-77
2023/10/08 04:49:27;;;;;;;1.23;0.40;;;;;;;11.43;100.00;101663.84;5082491;28;20123;-79
2023/10/08 04:52:08;;;;;;;3.72;0.98;;;;;;;11.42;100.00;101664.75;5078447;28;20127;-79
2023/10/08 04:54:45;;;;;;;1.65;0.45;;;;;;;11.42;100.00;101664.75;5077418;28;20040;-77
2023/10/08 04:57:15;;;;;;;2.03;0.47;;;;;;;11.42;100.00;101670.00;5087081;28;20032;-79
2023/10/08 04:59:46;;;;;;;3.50;1.00;;;;;;;11.42;100.00;101660.38;5071596;28;20121;-78
2023/10/08 05:02:19;;;;;;;1.80;0.65;;;;;;;11.39;100.00;101647.25;5085979;28;20039;-78
2023/10/08 05:05:07;;;;;;;3.10;0.53;;;;;;;11.40;100.00;101656.84;5063219;28;20095;-79
2023/10/08 05:10:44;;;;;;;1.00;0.60;;;;;;;11.42;100.00;101656.88;5071146;28;20047;-78
2023/10/08 05:13:17;;;;;;;4.15;0.60;;;;;;;11.42;100.00;101652.50;5077314;28;20040;-78
2023/10/08 05:16:02;;;;;;;3.70;0.80;;;;;;;11.41;100.00;101669.09;5077124;28;20040;-79
2023/10/08 05:18:54;;;;;;;0.55;0.50;;;;;;;11.46;100.00;101676.09;5082041;28;20036;-79
2023/10/08 05:21:28;;;;;;;2.50;0.50;;;;;;;11.45;100.00;101690.09;5076350;28;20135;-78
2023/10/08 05:24:08;;;;;;;2.60;0.70;;;;;;;11.44;100.00;101696.22;5075611;28;20051;-77
2023/10/08 05:26:44;;;;;;;0.82;0.50;;;;;;;11.41;100.00;101711.03;5074296;28;20051;-80
2023/10/08 05:32:30;;;;;;;;;;;;;;;11.41;100.00;101704.94;5080138;28;21448;-78
2023/10/08 05:35:30;;;;;;;1.88;0.45;;;;;;;11.38;100.00;101700.56;5067026;28;20015;-78
2023/10/08 05:37:41;;;;;;;3.10;0.57;;;;;;;11.35;100.00;101718.88;5081311;28;20036;-78
2023/10/08 05:40:43;;;;;;;2.58;0.75;;;;;;;11.35;100.00;101723.25;5082381;28;20043;-79
2023/10/08 05:43:22;;;;;;;2.60;0.55;;;;;;;11.33;100.00;101719.72;5069485;28;20032;-79
2023/10/08 05:46:18;;;;;;;2.10;0.60;;;;;;;11.37;100.00;101729.41;5080771;28;20476;-78
2023/10/08 05:48:45;;;;;;;2.75;0.77;;;;;;;11.38;100.00;101724.16;5080056;28;20078;-78
2023/10/08 05:51:13;;;;;;;1.38;0.60;;;;;;;11.38;100.00;101718.91;5058644;28;20048;-78
2023/10/08 05:53:44;;;;;;;2.92;0.80;;;;;;;11.39;100.00;101728.53;5078795;28;20050;-78
2023/10/08 05:56:28;;;;;;;2.15;1.33;;;;;;;11.42;100.00;101739.03;5078496;28;20849;-77
2023/10/08 05:59:14;;;;;;;3.22;0.75;;;;;;;11.44;100.00;101749.50;5066449;28;20147;-80
2023/10/08 06:01:41;;;;;;;1.00;0.60;;;;;;;11.45;100.00;101753.03;5082520;28;20040;-78
2023/10/08 06:04:42;;;;;;;6.05;1.08;;;;;;;11.47;100.00;101754.78;5078178;28;20032;-79
2023/10/08 06:07:12;;;;;;;3.60;0.65;;;;;;;11.44;100.00;101759.13;5080050;28;20119;-77
2023/10/08 06:09:40;;;;;;;1.20;1.02;;;;;;;11.40;100.00;101745.13;5080887;28;20048;-78
2023/10/08 06:12:19;;;;;;;0.88;0.50;;;;;;;11.42;100.00;101740.78;5078205;28;20039;-77
2023/10/08 06:17:55;;;;;;;4.35;1.08;;;;;;;11.38;100.00;101762.59;5071058;28;20608;-77
2023/10/08 06:20:25;;;;;;;3.10;0.85;;;;;;;11.44;100.00;101767.00;5077257;28;20186;-79
2023/10/08 06:22:59;;;;;;;4.93;0.95;;;;;;;11.47;100.00;101753.91;5071262;28;20323;-77
2023/10/08 06:25:27;;;;;;;2.92;0.70;;;;;;;11.50;100.00;101760.03;5070698;28;20897;-79
2023/10/08 06:27:58;;;;;;;3.05;1.02;;;;;;;11.51;100.00;101769.66;5063330;28;20430;-77
2023/10/08 06:30:28;;;;;;;3.72;1.10;;;;;;;11.54;100.00;101763.56;5076537;28;20416;-80
2023/10/08 06:32:56;;;;;;;2.00;0.90;;;;;;;11.58;100.00;101783.69;5077237;28;20143;-81
2023/10/08 06:35:28;;;;;;;2.92;0.95;;;;;;;11.62;100.00;101781.97;5073804;28;20075;-78
2023/10/08 06:38:01;;;;;;;2.75;1.08;;;;;;;11.64;100.00;101790.69;5077848;28;20121;-80
2023/10/08 06:40:42;;;;;;;4.22;1.20;;;;;;;11.67;100.00;101773.22;5071425;28;20035;-78
2023/10/08 06:43:21;;;;;;;1.80;0.73;;;;;;;11.68;100.00;101769.75;5073420;28;20068;-78
2023/10/08 06:45:53;;;;;;;4.38;1.00;;;;;;;11.73;100.00;101781.13;5074965;28;20071;-79
2023/10/08 06:48:24;;;;;;;2.85;1.00;;;;;;;11.78;100.00;101796.88;5075480;28;20040;-77
2023/10/08 06:50:56;;;;;;;2.05;0.73;;;;;;;11.83;100.00;101796.91;5077381;28;20044;-79
2023/10/08 06:53:24;;;;;;;3.45;0.90;;;;;;;11.94;100.00;101812.69;5076426;28;20043;-81
2023/10/08 06:55:56;;;;;;;2.60;0.90;;;;;;;12.11;100.00;101818.03;5069181;28;20056;-80
2023/10/08 06:58:26;;;;;;;2.50;1.35;;;;;;;12.22;100.00;101822.44;5073659;28;20051;-79
2023/10/08 07:00:55;;;;;;;4.20;1.38;;;;;;;12.25;100.00;101826.81;5073130;28;20469;-81
2023/10/08 07:03:21;;;;;;;1.67;0.80;;;;;;;12.28;100.00;101833.84;5064587;28;20539;-80
2023/10/08 07:05:59;;;;;;;3.17;1.25;;;;;;;12.33;100.00;101832.09;5078800;28;20432;-81
2023/10/08 07:08:31;;;;;;;3.65;1.52;;;;;;;12.31;100.00;101836.50;5076105;28;20056;-80
2023/10/08 07:11:01;;;;;;;4.38;1.70;;;;;;;12.40;100.00;101836.50;5079911;28;20040;-81
2023/10/08 07:13:29;;;;;;;1.70;1.10;;;;;;;12.33;100.00;101824.22;5078356;28;20469;-80
2023/10/08 07:15:57;;;;;;;2.10;1.15;;;;;;;12.45;100.00;101841.75;5082748;28;20393;-82
2023/10/08 07:18:25;;;;;;;2.17;1.17;;;;;;;12.84;100.00;101838.31;5082204;28;20514;-81
2023/10/08 07:20:54;;;;;;;7.75;5.60;;;;;;;13.17;100.00;101840.97;5083541;28;20040;-79
2023/10/08 07:23:26;;;;;;;3.80;3.13;;;;;;;13.06;100.00;101852.34;5083051;28;20064;-80
2023/10/08 07:26:01;;;;;;;4.45;3.72;;;;;;;13.23;100.00;101867.22;5062941;28;20048;-81
2023/10/08 07:28:30;;;;;;;4.30;3.50;;;;;;;13.19;100.00;101857.59;5077831;28;20044;-78
2023/10/08 07:30:57;;;;;;;6.70;4.50;;;;;;;13.29;100.00;101869.00;5051537;28;20040;-78
2023/10/08 07:33:24;;;;;;;8.20;4.32;;;;;;;13.34;100.00;101862.84;5072604;28;20041;-79
2023/10/08 07:35:56;;;;;;;7.47;4.90;;;;;;;13.35;100.00;101853.19;5073577;28;20042;-79
2023/10/08 07:38:27;;;;;;;7.15;3.95;;;;;;;13.31;100.00;101848.81;5074877;28;20040;-80
2023/10/08 07:40:55;;;;;;;27.23;14.05;;;;;;;13.24;100.00;101850.56;5070856;28;20039;-79
2023/10/08 07:43:22;;;;;;;9.27;4.85;;;;;;;13.32;100.00;101850.56;5086843;28;20052;-81
2023/10/08 07:45:48;;;;;;;5.72;2.58;;;;;;;13.52;100.00;101859.34;5078455;28;20040;-78
2023/10/08 07:48:15;;;;;;;4.00;2.35;;;;;;;13.72;100.00;101861.91;5081087;28;20506;-81
2023/10/08 07:50:46;;;;;;;5.13;2.28;;;;;;;13.66;98.86;101848.81;5084035;28;20032;-81
2023/10/08 07:53:18;;;;;;;5.93;2.05;;;;;;;13.63;97.27;101866.34;5083675;28;20434;-80
2023/10/08 07:55:47;;;;;;;5.47;2.47;;;;;;;13.72;98.25;101875.09;5078381;28;20044;-77
2023/10/08 07:58:16;;;;;;;3.88;2.42;;;;;;;13.77;97.26;101877.72;5076590;28;20086;-79
2023/10/08 08:00:51;;;;;;;4.22;2.17;;;;;;;13.75;97.66;101879.47;5077349;28;20036;-79
2023/10/08 08:03:19;;;;;;;3.28;2.10;;;;;;;13.77;96.06;101877.72;5077145;28;20036;-79
2023/10/08 08:05:52;;;;;;;8.07;2.22;;;;;;;13.84;95.52;101882.06;5083386;28;20275;-78
2023/10/08 08:08:22;;;;;;;2.90;2.30;;;;;;;13.89;94.86;101882.06;5087153;28;20135;-79
2023/10/08 08:10:50;;;;;;;3.70;2.40;;;;;;;13.88;93.16;101877.66;5086433;28;20551;-79
2023/10/08 08:13:20;;;;;;;4.30;2.50;;;;;;;13.79;92.79;101875.06;5073674;28;20598;-80
2023/10/08 08:15:50;;;;;;;3.95;2.58;;;;;;;13.82;89.78;101886.47;5085410;28;20079;-79
2023/10/08 08:18:22;;;;;;;8.43;3.05;;;;;;;13.85;90.89;101896.13;5077867;28;20043;-80
2023/10/08 08:20:49;;;;;;;4.82;2.97;;;;;;;13.95;89.52;101902.22;5084808;28;20063;-78
2023/10/08 08:23:17;;;;;;;5.57;3.15;;;;;;;14.07;90.23;101904.81;5068015;28;20067;-80
2023/10/08 08:25:55;;;;;;;6.88;3.00;;;;;;;14.14;88.81;101906.53;5085640;28;20923;-79
2023/10/08 08:28:28;;;;;;;4.10;3.08;;;;;;;14.29;88.55;101894.19;5084457;28;20048;-78
2023/10/08 08:30:57;;;;;;;4.53;2.63;;;;;;;14.37;89.08;101895.06;5071799;28;20501;-79
2023/10/08 08:33:24;;;;;;;5.10;2.50;;;;;;;14.44;87.96;101896.75;5075220;28;20907;-78
2023/10/08 08:36:05;;;;;;;2.60;2.28;;;;;;;14.42;87.06;101900.28;5081274;28;20085;-79
2023/10/08 08:38:32;;;;;;;5.45;2.13;;;;;;;14.46;86.77;101905.53;5065314;28;21255;-81
2023/10/08 08:41:07;;;;;;;15.60;3.45;;;;;;;14.61;86.77;101904.56;5074848;28;20654;-79
2023/10/08 08:43:37;;;;;;;11.30;3.10;;;;;;;14.67;86.74;101908.97;5072373;28;20036;-80
2023/10/08 08:46:06;;;;;;;6.38;2.67;;;;;;;14.71;84.25;101915.97;5099039;28;20517;-78
2023/10/08 08:48:35;;;;;;;6.45;2.60;;;;;;;15.02;80.34;101907.88;5077591;28;20063;-78
2023/10/08 08:51:02;;;;;;;4.60;2.60;;;;;;;14.98;80.08;101916.66;5078375;28;20151;-79
2023/10/08 08:53:29;;;;;;;5.88;2.90;;;;;;;14.79;81.05;101918.56;5072128;28;20068;-77
2023/10/08 08:55:56;;;;;;;2.15;1.95;;;;;;;14.82;81.12;101916.81;5085154;28;20414;-80
2023/10/08 08:58:25;;;;;;;4.40;2.13;;;;;;;15.02;80.89;101924.56;5059363;28;20139;-80
2023/10/08 09:00:55;;;;;;;4.15;2.28;;;;;;;15.15;80.07;101932.41;5079953;28;20680;-79
2023/10/08 09:03:30;;;;;;;8.07;3.22;;;;;;;15.13;78.90;101936.78;5076413;28;20135;-77
2023/10/08 09:05:57;;;;;;;6.07;2.88;;;;;;;14.97;79.68;101936.91;5077727;28;20044;-79
2023/10/08 09:08:31;;;;;;;1.92;1.83;;;;;;;14.89;79.42;101946.63;5077277;28;20040;-80
2023/10/08 09:11:01;;;;;;;4.72;1.73;;;;;;;14.95;78.87;101959.75;5063754;28;20082;-78
2023/10/08 09:13:31;;;;;;;2.92;2.40;;;;;;;14.91;77.46;101955.38;5073441;28;20044;-80
2023/10/08 09:16:14;;;;;;;6.07;2.92;;;;;;;14.96;78.40;101958.88;5079278;28;20122;-78
2023/10/08 09:18:45;;;;;;;5.30;1.60;;;;;;;14.96;76.29;101948.31;5061699;28;20040;-78
2023/10/08 09:21:14;;;;;;;4.47;1.70;;;;;;;15.01;75.50;101959.72;5082035;28;20503;-81
2023/10/08 09:23:47;;;;;;;3.40;1.67;;;;;;;15.38;75.02;101963.84;5081206;28;20043;-77
2023/10/08 09:26:15;;;;;;;5.38;1.75;;;;;;;15.70;72.35;101965.34;5078129;28;20126;-81
2023/10/08 09:28:48;;;;;;;6.57;2.10;;;;;;;15.79;73.25;101961.75;5095807;28;20252;-78
2023/10/08 09:31:17;;;;;;;6.72;1.92;;;;;;;15.60;71.16;101964.53;5060079;28;20040;-80
2023/10/08 09:33:57;;;;;;;2.28;1.48;;;;;;;15.86;72.19;101959.03;5074057;28;20040;-79
2023/10/08 09:36:31;;;;;;;3.00;1.77;;;;;;;15.46;67.35;101955.88;5078582;28;20068;-80
2023/10/08 09:39:01;;;;;;;;;;;;;;;15.48;67.65;101968.16;5078149;28;20040;-78
2023/10/08 09:41:30;;;;;;;4.20;1.45;;;;;;;15.67;69.96;101957.44;5073428;28;19939;-79
2023/10/08 09:44:04;;;;;;;2.30;1.77;;;;;;;16.38;70.82;101954.94;5079793;28;20032;-78
2023/10/08 09:46:34;;;;;;;4.68;2.03;;;;;;;17.09;64.27;101960.19;5078723;28;20036;-80
2023/10/08 09:49:02;;;;;;;2.13;0.98;;;;;;;17.56;61.50;101950.63;5097466;28;20036;-78
2023/10/08 09:51:31;;;;;;;5.13;1.05;;;;;;;16.93;58.33;101951.63;5072404;28;20044;-78
2023/10/08 09:54:32;;;;;;;4.28;0.90;;;;;;;17.55;58.00;101946.22;5079625;28;20089;-79
2023/10/08 09:57:00;;;;;;;7.22;0.90;;;;;;;18.51;56.48;101947.03;5095047;28;20105;-78
2023/10/08 09:59:29;;;;;;;9.95;0.98;;;;;;;19.11;54.19;101955.44;5074485;28;20123;-80
2023/10/08 10:01:59;;;;;;;4.00;1.52;;;;;;;19.71;48.99;101945.09;5076941;28;20089;-81
2023/10/08 10:04:28;;;;;;;3.33;1.17;;;;;;;19.92;47.49;101946.31;5077485;28;20056;-82
2023/10/08 10:06:57;;;;;;;4.75;1.00;;;;;;;20.57;47.78;101941.81;5100908;27;20119;-77
2023/10/08 10:09:27;;;;;;;2.17;0.95;;;;;;;20.96;45.26;101939.75;5080637;28;20056;-78
2023/10/08 10:11:57;;;;;;;4.13;1.02;;;;;;;20.91;44.00;101925.72;5065759;28;20040;-80
2023/10/08 10:14:45;;;;;;;3.50;1.40;;;;;;;21.68;45.12;101932.94;5079120;28;20040;-79
2023/10/08 10:17:22;;;;;;;3.72;1.67;;;;;;;22.35;44.52;101933.19;5082254;28;20724;-79
2023/10/08 10:20:03;;;;;;;1.95;0.95;;;;;;;22.30;41.51;101946.69;5082668;28;20051;-79
2023/10/08 10:22:35;;;;;;;4.13;0.77;;;;;;;21.08;45.89;101943.81;5080056;28;20050;-80
2023/10/08 10:25:14;;;;;;;2.20;1.17;;;;;;;18.44;51.57;101937.47;5078414;28;20040;-81
2023/10/08 10:27:56;;;;;;;4.65;1.45;;;;;;;19.43;49.57;101956.44;5078133;28;20146;-80
2023/10/08 10:30:23;;;;;;;2.38;1.27;;;;;;;19.09;49.25;101975.88;5081164;28;20047;-78
2023/10/08 10:32:53;;;;;;;7.85;1.73;;;;;;;18.76;50.15;101987.16;5084209;28;20040;-79
2023/10/08 10:35:19;;;;;;;3.55;1.30;;;;;;;18.33;51.53;101982.78;5080419;28;20044;-80
2023/10/08 10:37:52;;;;;;;4.47;1.10;;;;;;;18.00;52.07;101985.16;5076868;28;20123;-79
2023/10/08 10:40:29;;;;;;;7.90;0.95;;;;;;;17.70;51.11;101968.91;5055429;28;20056;-77
2023/10/08 10:43:06;;;;;;;2.00;0.88;;;;;;;18.21;50.56;101980.34;5076016;28;20524;-79
2023/10/08 10:45:40;;;;;;;7.95;1.30;;;;;;;19.24;47.36;101978.16;5078584;28;20117;-78
2023/10/08 10:48:13;;;;;;;4.75;0.93;;;;;;;20.81;45.25;101966.84;5061193;28;20162;-79
2023/10/08 10:51:08;;;;;;;9.18;1.45;;;;;;;22.05;40.89;101960.94;5073558;28;20044;-80
2023/10/08 10:53:44;;;;;;;4.68;0.80;;;;;;;21.26;40.34;101963.63;5089314;28;20055;-80
2023/10/08 10:56:18;;;;;;;6.30;1.02;;;;;;;20.36;43.89;101964.59;5078090;28;20142;-78
2023/10/08 10:58:53;;;;;;;6.43;1.45;;;;;;;21.39;41.92;101977.38;5060498;28;20044;-79
2023/10/08 11:01:23;;;;;;;3.20;0.73;;;;;;;22.52;40.12;101964.59;5075754;28;20151;-81
2023/10/08 11:03:52;;;;;;;4.78;1.35;;;;;;;23.30;38.71;101982.00;5095883;28;20074;-79
2023/10/08 11:06:23;;;;;;;1.90;0.80;;;;;;;24.69;37.81;101969.66;5078184;28;20425;-77
2023/10/08 11:08:56;;;;;;;3.28;0.70;;;;;;;22.85;39.85;101956.19;5077087;28;20143;-80
2023/10/08 11:11:29;;;;;;;2.25;0.80;;;;;;;22.07;41.07;101943.09;5070763;28;20135;-81
2023/10/08 11:14:01;;;;;;;4.00;1.20;;;;;;;22.28;41.22;101961.88;5079618;28;20067;-80
2023/10/08 11:16:31;;;;;;;1.55;0.75;;;;;;;22.52;41.25;101964.59;5077129;28;20441;-79
2023/10/08 11:19:01;;;;;;;4.35;1.05;;;;;;;22.79;40.98;101973.31;5075213;28;20035;-80
2023/10/08 11:21:33;;;;;;;2.30;0.68;;;;;;;23.52;39.77;101943.66;5078226;28;20040;-79
2023/10/08 11:24:08;;;;;;;1.70;0.75;;;;;;;23.78;39.20;101913.97;5076238;28;20044;-79
2023/10/08 11:26:39;;;;;;;2.22;0.73;;;;;;;23.89;37.80;101934.88;5077677;28;20446;-79
2023/10/08 11:29:14;;;;;;;7.72;1.02;;;;;;;24.19;38.15;101928.25;5075776;28;20047;-80
2023/10/08 11:31:45;;;;;;;2.05;0.63;;;;;;;24.36;37.65;101954.22;5074512;28;20048;-79
2023/10/08 11:34:13;;;;;;;3.45;1.05;;;;;;;24.73;36.09;101976.59;5081231;28;20494;-81
2023/10/08 11:36:55;;;;;;;4.70;1.25;;;;;;;24.94;36.65;101977.41;5074556;28;20039;-80
2023/10/08 11:39:21;;;;;;;1.35;0.82;;;;;;;26.40;31.67;101974.41;5088314;28;20402;-78
2023/10/08 11:42:06;;;;;;;2.65;0.88;;;;;;;25.01;32.76;101967.25;5059876;28;20041;-81
2023/10/08 11:44:35;;;;;;;3.60;1.15;;;;;;;23.26;37.47;101933.16;5076216;28;20085;-79
2023/10/08 11:47:11;;;;;;;2.10;1.00;;;;;;;23.12;37.77;101930.16;5092767;28;20051;-83
2023/10/08 11:49:46;;;;;;;1.63;1.13;;;;;;;22.17;38.06;101927.59;5059475;28;20047;-79
2023/10/08 11:52:15;;;;;;;2.95;0.95;;;;;;;22.34;36.47;101926.09;5079933;28;20032;-80
2023/10/08 11:54:43;;;;;;;2.85;1.00;;;;;;;23.42;36.75;101933.34;5077009;28;20051;-81
2023/10/08 11:57:11;;;;;;;4.47;1.67;;;;;;;23.08;35.57;101950.78;5079222;28;20032;-81